CYYZ/YYZ METAR and TAF weather

Enter ICAO airport designator
Station Type Date Time Source
CYYZ METAR 2018/09/20 18:00 UTC NOAA

CYYZ 201800Z 10008KT 080V140 15SM FEW023 FEW110 OVC150 19/13 A3016 RMK CU1AC1AC7 AC TR SLP216 DENSITY ALT 900FT


Station Type Date Time Source
CYYZ Decoded METAR 2018/09/20 18:00 UTC NOAA

Toronto Pearson Int'L. Ont., Canada (CYYZ) 43-40N 079-38W 173M
Sep 20, 2018 - 02:00 PM EDT / 2018.09.20 1800 UTC
Wind: from the E (100 degrees) at 9 MPH (8 KT) (direction variable):0
Visibility: 15 mile(s):0
Sky conditions: overcast
Temperature: 66 F (19 C)
Dew Point: 55 F (13 C)
Relative Humidity: 68%
Pressure (altimeter): 30.16 in. Hg (1021 hPa)
ob: CYYZ 201800Z 10008KT 080V140 15SM FEW023 FEW110 OVC150 19/13 A3016 RMK CU1AC1AC7 AC TR SLP216 DENSITY ALT 900FT
cycle: 18

Station Type Date Time Source
CYYZ TAF 2018/09/20 18:42 UTC NOAA

TAF CYYZ 201738Z 2018/2124 10012KT P6SM FEW025 BKN110
FM202100 10012KT P6SM -SHRA FEW025 BKN050
TEMPO 2021/2103 6SM -SHRA BR BKN020 OVC050
FM210300 10008KT P6SM -SHRA FEW008 BKN025
TEMPO 2103/2108 5SM -SHRA BR BKN008 OVC025
FM210800 21010KT P6SM BKN025 OVC080
TEMPO 2108/2114 6SM -SHRA BR BKN020 OVC080 PROB30 2108/2111 2SM +TSRA BR BKN008 BKN030CB
FM211400 22020G30KT P6SM FEW025
FM212100 26020G30KT 5SM SHRA BR OVC025 PROB30 2121/2124 VRB30G45KT 1SM +TSRA BR BKN010 OVC025CB
RMK NXT FCST BY 202100Z


Example: see airport list